Terminal Aerodrome Forecast
Issued by NWS

Home | Current Version | Previous Version | Text Only | Print | Product List | Glossary On
Versions: 1 2 3 4 5 6 7 8 9 10 11 12 13 14 15 16 17 18 19
658
FTUS43 KDLH 191736
TAFHIB
TAF
KHIB 191736Z 1918/2018 21008KT P6SM FEW250
     FM191900 21010G16KT P6SM FEW250
     FM200100 20007KT P6SM FEW250 WS020/22040KT
     FM200800 17006KT P6SM FEW250
     FM201600 18009KT P6SM SCT250=

USA.gov is the U.S. government's official web portal to all federal, state and local government web resources and services.